F/V Mailys Charlie — FMIW — position and weather

sailwx.info

Track history (hours):
 
Tides and Currents Weather Stations Pressure Air Temp Water Temp Dewpoint Dewpoint Depression Visibility Wind Speed Wind Dir Waves Ship Positions

F/V Mailys Charlie

Last reported at 2014-Nov-20 08:19 UTC. Time now 2014-Nov-22 02:58 UTC.
Position N 48°08' W 005°03'.

Length 19 m.

Type: Fishing. MMSI: 228240800.

Date/timePositionNaut miles runAvg speedWind from/ knotsBaromVisibWave heightAir tempDewpointWater temp
2014-Nov-20 08:19N 48°08' W 005°03'6 8.6
2014-Nov-20 07:34N 48°08' W 004°54'9 8.5
2014-Nov-20 06:33N 48°08' W 004°41'9 8.7
2014-Nov-20 05:33N 48°07' W 004°28'6 5.8
2014-Nov-20 04:33N 48°06' W 004°20'0 0.0
2014-Nov-20 03:33N 48°06' W 004°19'0 0.0
2014-Nov-20 02:33N 48°06' W 004°19'1 0.9
2014-Nov-20 01:33N 48°07' W 004°20'11 8.2
2014-Nov-20 00:15N 48°07' W 004°35'6 8.5
2014-Nov-19 23:33N 48°08' W 004°44'8 8.0
2014-Nov-19 22:33N 48°09' W 004°56'2 0.1
2014-Nov-19 09:28N 48°09' W 004°59'7 7.6
2014-Nov-19 08:33N 48°08' W 004°49'8 8.0
2014-Nov-19 07:33N 48°08' W 004°37'8 8.3
2014-Nov-19 06:33N 48°07' W 004°24'4 3.6
2014-Nov-19 05:33N 48°06' W 004°19'0 0.0
2014-Nov-19 04:33N 48°06' W 004°19'3 2.9
2014-Nov-19 03:33N 48°07' W 004°23'8 8.1
2014-Nov-19 02:33N 48°08' W 004°35'8 8.1
2014-Nov-19 01:33N 48°09' W 004°47'9 8.3
2014-Nov-19 00:31N 48°13' W 004°59'  
Track history (hours):
 
Tides and Currents Weather Stations Pressure Air Temp Water Temp Dewpoint Dewpoint Depression Visibility Wind Speed Wind Dir Waves Ship Positions

F/V Mailys Charlie

Last reported at 2014-Nov-20 08:19 UTC. Time now 2014-Nov-22 02:58 UTC.
Position N 48°08' W 005°03'.

Length 19 m.

Type: Fishing. MMSI: 228240800.

Date/timePositionNaut miles runAvg speedWind from/ knotsBaromVisibWave heightAir tempDewpointWater temp
2014-Nov-20 08:19N 48°08' W 005°03'6 8.6
2014-Nov-20 07:34N 48°08' W 004°54'9 8.5
2014-Nov-20 06:33N 48°08' W 004°41'9 8.7
2014-Nov-20 05:33N 48°07' W 004°28'6 5.8
2014-Nov-20 04:33N 48°06' W 004°20'0 0.0
2014-Nov-20 03:33N 48°06' W 004°19'0 0.0
2014-Nov-20 02:33N 48°06' W 004°19'1 0.9
2014-Nov-20 01:33N 48°07' W 004°20'11 8.2
2014-Nov-20 00:15N 48°07' W 004°35'6 8.5
2014-Nov-19 23:33N 48°08' W 004°44'8 8.0
2014-Nov-19 22:33N 48°09' W 004°56'2 0.1
2014-Nov-19 09:28N 48°09' W 004°59'7 7.6
2014-Nov-19 08:33N 48°08' W 004°49'8 8.0
2014-Nov-19 07:33N 48°08' W 004°37'8 8.3
2014-Nov-19 06:33N 48°07' W 004°24'4 3.6
2014-Nov-19 05:33N 48°06' W 004°19'0 0.0
2014-Nov-19 04:33N 48°06' W 004°19'3 2.9
2014-Nov-19 03:33N 48°07' W 004°23'8 8.1
2014-Nov-19 02:33N 48°08' W 004°35'8 8.1
2014-Nov-19 01:33N 48°09' W 004°47'9 8.3
2014-Nov-19 00:31N 48°13' W 004°59'  

Dump ship's entire track history